Home   Weather   USA   Bullhead City   Past weeks
Flag for USA

Past Weather in Bullhead City, Arizona, USA — Yesterday and Last 2 Weeks

Currently: 66 °F. Clear. (Weather station: Laughlin/Bullhead International Airport, USA). See more current weather

Past Weather in Bullhead City — Graph

°F

Bullhead City Temperature Yesterday

Maximum temperature yesterday: 91 °F (at 3:49 pm)
Minimum temperature yesterday: 57 °F (at 5:55 am)
Average temperature yesterday: 73 °F

High & Low Weather Summary for the Past Weeks

 TemperatureHumidityPressure
High91 °F (Apr 11, 3:49 pm)94% (Mar 31, 5:35 am)30.23 "Hg (Mar 31, 5:35 am)
Low45 °F (Apr 6, 5:55 am)4% (Mar 29, 6:35 pm)29.59 "Hg (Apr 4, 6:55 pm)
Average64 °F33%29.90 "Hg
* Reported Mar 28 2:15 am — Apr 12 2:35 am, Bullhead City. Weather by CustomWeather, © 2024

Note: Actual official high and low records may vary slightly from our data, if they occured in-between our weather recording intervals... More about our weather records

Bullhead City Weather History for the Previous 24 Hours

Scroll right to see more
 ConditionsComfort  
Time TempWeatherWind HumidityBarometerVisibility
2:35 am
Fri, Apr 12
66 °FClear.No wind24%29.76 "Hg10 mi
2:15 am66 °FClear.No wind24%29.76 "Hg10 mi
1:55 am68 °FClear.5 mph24%29.76 "Hg10 mi
1:15 am70 °FClear.No wind18%29.76 "Hg10 mi
12:35 am70 °FClear.No wind21%29.76 "Hg10 mi
12:15 am72 °FClear.No wind19%29.76 "Hg10 mi
11:55 pm
Thu, Apr 11
72 °FClear.No wind20%29.76 "Hg10 mi
11:35 pm72 °FClear.No wind19%29.76 "Hg10 mi
10:55 pm73 °FClear.No wind19%29.76 "Hg10 mi
10:35 pm73 °FClear.No wind17%29.76 "Hg10 mi
10:15 pm73 °FClear.5 mph19%29.76 "Hg10 mi
9:55 pm77 °FClear.3 mph14%29.76 "Hg10 mi
9:30 pm79 °FClear.5 mph13%29.76 "Hg10 mi
8:55 pm79 °FClear.5 mph13%29.76 "Hg10 mi
8:35 pm79 °FClear.No wind15%29.75 "Hg10 mi
8:15 pm81 °FClear.7 mph13%29.75 "Hg10 mi
7:55 pm82 °FClear.6 mph12%29.74 "Hg10 mi
7:30 pm84 °FClear.No wind10%29.74 "Hg10 mi
7:15 pm88 °FClear.No wind8%29.74 "Hg10 mi
6:35 pm90 °FSunny.6 mph7%29.74 "Hg10 mi
6:15 pm91 °FSunny.8 mph7%29.75 "Hg10 mi
5:55 pm91 °FSunny.7 mph7%29.75 "Hg10 mi
4:54 pm91 °FSunny.6 mph7%29.77 "Hg10 mi
3:49 pm91 °FSunny.7 mph7%29.79 "Hg10 mi
2:58 pm90 °FSunny.7 mph7%29.81 "Hg10 mi
1:50 pm88 °FSunny.3 mph9%29.85 "Hg10 mi
12:47 pm86 °FSunny.8 mph11%29.88 "Hg10 mi
11:48 am84 °FSunny.13 mph11%29.90 "Hg10 mi
10:49 am81 °FSunny.13 mph14%29.93 "Hg10 mi
10:20 am79 °FSunny.14 mph15%29.93 "Hg10 mi
9:54 am73 °FSunny.6 mph20%29.95 "Hg10 mi
8:48 am66 °FSunny.6 mph26%29.95 "Hg10 mi
7:50 am61 °FSunny.No wind34%29.95 "Hg10 mi
7:35 am61 °FSunny.No wind31%29.95 "Hg10 mi
6:50 am59 °FSunny.No wind34%29.94 "Hg10 mi
6:35 am57 °FSunny.No wind36%29.93 "Hg10 mi
5:55 am57 °FClear.No wind39%29.93 "Hg10 mi
5:35 am59 °FClear.No wind34%29.92 "Hg10 mi
5:15 am59 °FClear.No wind31%29.92 "Hg10 mi
4:55 am61 °FClear.No wind29%29.92 "Hg10 mi
4:30 am61 °FClear.No wind29%29.92 "Hg10 mi
4:15 am61 °FClear.5 mph27%29.92 "Hg10 mi
3:55 am61 °FClear.No wind29%29.93 "Hg10 mi
3:35 am61 °FClear.No wind29%29.93 "Hg10 mi
3:15 am61 °FClear.No wind29%29.93 "Hg10 mi
Weather by CustomWeather, © 2024

See weather overview